Time;durP1;ratioP1;P1;durP2;ratioP2;P2;SDS_P1;SDS_P2;PMS_P1;PMS_P2;Temp;Humidity;BMP_temperature;BMP_pressure;BME280_temperature;BME280_humidity;BME280_pressure;Samples;Min_cycle;Max_cycle;Signal;HPM_P1;HPM_P2
2022/03/12 00:02:13;;;;;;;24.65;14.07;;;;;;;;;;4940305;28;92939;-74
2022/03/12 00:04:41;;;;;;;19.80;14.02;;;;;;;;;;4938567;28;94604;-74
2022/03/12 00:07:11;;;;;;;22.13;13.65;;;;;;;;;;4943882;28;93189;-74
2022/03/12 00:09:38;;;;;;;18.75;13.98;;;;;;;;;;4939969;28;92633;-74
2022/03/12 00:12:05;;;;;;;20.50;13.68;;;;;;;;;;4939979;28;92265;-74
2022/03/12 00:14:33;;;;;;;22.40;14.07;;;;;;;;;;4939843;28;94280;-74
2022/03/12 00:17:03;;;;;;;19.00;14.15;;;;;;;;;;4939168;28;95766;-74
2022/03/12 00:19:30;;;;;;;22.50;15.07;;;;;;;;;;4939260;28;92823;-74
2022/03/12 00:21:57;;;;;;;19.02;14.10;;;;;;;;;;4939091;28;93701;-74
2022/03/12 00:24:25;;;;;;;23.67;14.55;;;;;;;;;;4939581;28;93421;-74
2022/03/12 00:26:51;;;;;;;20.08;14.43;;;;;;;;;;4941463;28;92530;-74
2022/03/12 00:29:20;;;;;;;23.20;14.23;;;;;;;;;;4943017;28;93370;-75
2022/03/12 00:31:50;;;;;;;20.30;13.93;;;;;;;;;;4940686;28;93977;-74
2022/03/12 00:34:17;;;;;;;20.95;14.45;;;;;;;;;;4942139;28;93755;-75
2022/03/12 00:36:46;;;;;;;20.23;14.00;;;;;;;;;;4942512;28;93198;-74
2022/03/12 00:39:14;;;;;;;21.80;13.65;;;;;;;;;;4941099;28;92384;-74
2022/03/12 00:41:42;;;;;;;20.98;14.65;;;;;;;;;;4940444;28;94850;-75
2022/03/12 00:44:11;;;;;;;22.55;14.07;;;;;;;;;;4939729;28;92359;-74
2022/03/12 00:46:37;;;;;;;20.67;13.85;;;;;;;;;;4941450;28;92437;-74
2022/03/12 00:49:04;;;;;;;19.30;13.80;;;;;;;;;;4937993;28;93630;-74
2022/03/12 00:51:30;;;;;;;20.48;13.55;;;;;;;;;;4941080;28;93464;-74
2022/03/12 00:53:57;;;;;;;20.50;13.20;;;;;;;;;;4938036;28;95060;-74
2022/03/12 00:56:23;;;;;;;31.75;13.80;;;;;;;;;;4940989;28;93494;-74
2022/03/12 00:58:50;;;;;;;21.88;14.80;;;;;;;;;;4938610;28;92338;-74
2022/03/12 01:01:17;;;;;;;21.77;13.55;;;;;;;;;;4938101;28;94942;-74
2022/03/12 01:03:44;;;;;;;22.67;14.15;;;;;;;;;;4937216;28;92998;-74
2022/03/12 01:06:13;;;;;;;27.35;14.10;;;;;;;;;;4939612;28;94832;-74
2022/03/12 01:08:39;;;;;;;25.58;13.43;;;;;;;;;;4937014;28;95692;-74
2022/03/12 01:11:07;;;;;;;19.58;13.65;;;;;;;;;;4937863;28;93462;-74
2022/03/12 01:13:34;;;;;;;25.90;14.50;;;;;;;;;;4939261;28;92306;-74
2022/03/12 01:16:01;;;;;;;24.30;13.98;;;;;;;;;;4941353;28;93220;-74
2022/03/12 01:18:28;;;;;;;26.02;13.93;;;;;;;;;;4937302;28;93155;-74
2022/03/12 01:20:54;;;;;;;26.00;14.43;;;;;;;;;;4938015;28;93027;-74
2022/03/12 01:23:23;;;;;;;29.63;14.48;;;;;;;;;;4938178;28;92914;-74
2022/03/12 01:25:50;;;;;;;22.27;14.70;;;;;;;;;;4937657;28;92431;-74
2022/03/12 01:28:17;;;;;;;18.40;13.65;;;;;;;;;;4937520;28;93578;-74
2022/03/12 01:30:44;;;;;;;22.90;14.50;;;;;;;;;;4935316;28;96205;-74
2022/03/12 01:33:11;;;;;;;22.75;13.65;;;;;;;;;;4940645;28;92316;-74
2022/03/12 01:35:38;;;;;;;21.95;14.20;;;;;;;;;;4937808;28;94024;-74
2022/03/12 01:38:04;;;;;;;23.33;14.07;;;;;;;;;;4937549;28;92338;-74
2022/03/12 01:40:31;;;;;;;24.42;14.40;;;;;;;;;;4937072;28;94556;-74
2022/03/12 01:42:57;;;;;;;25.45;14.65;;;;;;;;;;4936946;28;94094;-74
2022/03/12 01:45:28;;;;;;;24.83;13.82;;;;;;;;;;4937862;28;93645;-74
2022/03/12 01:47:55;;;;;;;19.92;14.00;;;;;;;;;;4902428;28;1109903;-74
2022/03/12 01:50:25;;;;;;;19.60;12.80;;;;;;;;;;4938324;28;93675;-74
2022/03/12 01:52:53;;;;;;;23.77;14.82;;;;;;;;;;4938242;28;92512;-74
2022/03/12 01:55:21;;;;;;;24.88;14.75;;;;;;;;;;4941183;28;95722;-73
2022/03/12 01:57:48;;;;;;;18.98;14.02;;;;;;;;;;4938340;28;92708;-73
2022/03/12 02:00:21;;;;;;;27.25;14.90;;;;;;;;;;4938437;28;92399;-72
2022/03/12 02:02:51;;;;;;;20.30;14.95;;;;;;;;;;4939336;28;94075;-72
2022/03/12 02:05:18;;;;;;;23.35;14.57;;;;;;;;;;4938473;28;92365;-72
2022/03/12 02:07:44;;;;;;;22.90;14.38;;;;;;;;;;4938586;28;93035;-74
2022/03/12 02:10:20;;;;;;;24.65;14.95;;;;;;;;;;4938396;28;93629;-72
2022/03/12 02:12:46;;;;;;;25.08;15.13;;;;;;;;;;4938794;28;91734;-74
2022/03/12 02:15:15;;;;;;;21.83;15.25;;;;;;;;;;4936966;28;92396;-74
2022/03/12 02:17:41;;;;;;;19.77;14.45;;;;;;;;;;4941107;28;93930;-73
2022/03/12 02:20:07;;;;;;;18.88;15.30;;;;;;;;;;4936009;28;94790;-73
2022/03/12 02:22:34;;;;;;;23.80;15.85;;;;;;;;;;4938466;28;93788;-73
2022/03/12 02:25:00;;;;;;;27.25;15.43;;;;;;;;;;4937920;28;92348;-74
2022/03/12 02:27:26;;;;;;;25.75;15.27;;;;;;;;;;4938260;28;93430;-73
2022/03/12 02:29:53;;;;;;;24.48;15.20;;;;;;;;;;4938015;28;93833;-74
2022/03/12 02:32:20;;;;;;;22.13;15.27;;;;;;;;;;4938223;28;92995;-74
2022/03/12 02:34:47;;;;;;;21.65;15.48;;;;;;;;;;4938091;28;93935;-74
2022/03/12 02:37:25;;;;;;;20.70;15.65;;;;;;;;;;4937562;28;91893;-74
2022/03/12 02:39:51;;;;;;;20.27;15.48;;;;;;;;;;4939210;28;92536;-74
2022/03/12 02:42:20;;;;;;;21.23;16.10;;;;;;;;;;4937591;28;94975;-74
2022/03/12 02:44:47;;;;;;;23.23;15.00;;;;;;;;;;4936342;28;94752;-74
2022/03/12 02:47:20;;;;;;;24.02;16.48;;;;;;;;;;4935410;28;97880;-74
2022/03/12 02:49:48;;;;;;;22.67;15.40;;;;;;;;;;4936999;28;93633;-74
2022/03/12 02:52:15;;;;;;;26.05;15.70;;;;;;;;;;4938043;28;92392;-74
2022/03/12 02:54:42;;;;;;;28.55;16.23;;;;;;;;;;4937877;28;93702;-74
2022/03/12 02:57:09;;;;;;;28.27;17.58;;;;;;;;;;4937464;28;93397;-74
2022/03/12 02:59:35;;;;;;;23.45;15.65;;;;;;;;;;4938140;28;92427;-74
2022/03/12 03:02:03;;;;;;;24.40;16.90;;;;;;;;;;4941488;28;93462;-74
2022/03/12 03:04:34;;;;;;;28.60;15.88;;;;;;;;;;4937907;28;92305;-74
2022/03/12 03:07:02;;;;;;;22.70;16.40;;;;;;;;;;4937926;28;93904;-74
2022/03/12 03:09:29;;;;;;;23.90;16.48;;;;;;;;;;4935624;28;96016;-75
2022/03/12 03:11:57;;;;;;;26.15;16.33;;;;;;;;;;4937771;28;92266;-74
2022/03/12 03:14:26;;;;;;;32.15;16.27;;;;;;;;;;4937833;28;93421;-74
2022/03/12 03:16:53;;;;;;;25.27;16.80;;;;;;;;;;4936491;28;92802;-75
2022/03/12 03:19:26;;;;;;;24.08;14.80;;;;;;;;;;4937219;28;92379;-74
2022/03/12 03:21:55;;;;;;;23.40;16.30;;;;;;;;;;4940363;28;93358;-74
2022/03/12 03:24:22;;;;;;;20.23;15.48;;;;;;;;;;4937580;28;92327;-74
2022/03/12 03:26:50;;;;;;;22.83;15.80;;;;;;;;;;4937872;28;93670;-75
2022/03/12 03:29:19;;;;;;;25.00;15.85;;;;;;;;;;4937336;28;93687;-74
2022/03/12 03:31:46;;;;;;;19.02;14.68;;;;;;;;;;4936891;28;92397;-75
2022/03/12 03:34:13;;;;;;;22.75;15.93;;;;;;;;;;4935882;28;94756;-74
2022/03/12 03:36:39;;;;;;;20.77;15.23;;;;;;;;;;4937276;28;93668;-74
2022/03/12 03:39:06;;;;;;;21.60;15.77;;;;;;;;;;4937258;28;92378;-74
2022/03/12 03:41:33;;;;;;;19.70;15.48;;;;;;;;;;4937348;28;93857;-74
2022/03/12 03:44:00;;;;;;;24.35;15.40;;;;;;;;;;4940226;28;93892;-74
2022/03/12 03:46:28;;;;;;;21.05;15.40;;;;;;;;;;4936522;28;93262;-75
2022/03/12 03:48:55;;;;;;;20.77;14.95;;;;;;;;;;4919844;28;95113;-75
2022/03/12 03:51:22;;;;;;;21.63;14.40;;;;;;;;;;4952980;28;91525;-75
2022/03/12 03:53:49;;;;;;;22.30;15.50;;;;;;;;;;4937071;28;92912;-75
2022/03/12 03:56:16;;;;;;;20.27;15.20;;;;;;;;;;4937035;28;93664;-75
2022/03/12 03:58:42;;;;;;;24.02;15.23;;;;;;;;;;4935666;28;94651;-74
2022/03/12 04:01:15;;;;;;;17.75;13.98;;;;;;;;;;4936533;28;95369;-75
2022/03/12 04:03:48;;;;;;;21.63;15.55;;;;;;;;;;4936864;28;93470;-75
2022/03/12 04:06:16;;;;;;;19.98;15.32;;;;;;;;;;4940006;28;92273;-75
2022/03/12 04:08:43;;;;;;;23.77;14.80;;;;;;;;;;4936398;28;94886;-75
2022/03/12 04:11:13;;;;;;;20.95;15.15;;;;;;;;;;4936793;28;92279;-74
2022/03/12 04:13:42;;;;;;;19.13;14.77;;;;;;;;;;4936321;28;93561;-74
2022/03/12 04:16:09;;;;;;;24.60;15.25;;;;;;;;;;4937228;28;92906;-75
2022/03/12 04:18:37;;;;;;;22.08;15.48;;;;;;;;;;4935712;28;92194;-74
2022/03/12 04:21:05;;;;;;;22.17;14.68;;;;;;;;;;4936674;28;92605;-75
2022/03/12 04:23:31;;;;;;;21.05;14.63;;;;;;;;;;4935087;28;95921;-75
2022/03/12 04:25:58;;;;;;;21.33;14.82;;;;;;;;;;4936675;28;92355;-76
2022/03/12 04:28:27;;;;;;;19.63;14.45;;;;;;;;;;4939466;28;93896;-75
2022/03/12 04:30:54;;;;;;;19.50;15.07;;;;;;;;;;4936611;28;92388;-75
2022/03/12 04:33:21;;;;;;;26.13;15.07;;;;;;;;;;4936725;28;92700;-74
2022/03/12 04:35:48;;;;;;;26.75;16.55;;;;;;;;;;4936533;28;94094;-75
2022/03/12 04:38:15;;;;;;;21.20;14.98;;;;;;;;;;4938522;28;92289;-74
2022/03/12 04:40:46;;;;;;;23.10;15.70;;;;;;;;;;4939961;28;92821;-75
2022/03/12 04:43:17;;;;;;;20.33;14.27;;;;;;;;;;4939864;28;93568;-75
2022/03/12 04:45:45;;;;;;;20.17;14.68;;;;;;;;;;4940023;28;92174;-75
2022/03/12 04:48:15;;;;;;;22.48;15.77;;;;;;;;;;4937911;28;94769;-75
2022/03/12 04:50:42;;;;;;;21.60;14.50;;;;;;;;;;4942767;28;93623;-75
2022/03/12 04:53:08;;;;;;;21.45;15.32;;;;;;;;;;4939136;28;93539;-75
2022/03/12 04:55:36;;;;;;;24.20;14.85;;;;;;;;;;4939635;28;93608;-75
2022/03/12 04:58:04;;;;;;;24.20;14.88;;;;;;;;;;4939595;28;92345;-75
2022/03/12 05:00:31;;;;;;;22.13;14.93;;;;;;;;;;4939583;28;93538;-75
2022/03/12 05:03:00;;;;;;;20.73;15.35;;;;;;;;;;4939612;28;93489;-75
2022/03/12 05:05:27;;;;;;;21.88;15.27;;;;;;;;;;4940073;28;91531;-74
2022/03/12 05:07:59;;;;;;;22.15;15.35;;;;;;;;;;4939166;28;93151;-75
2022/03/12 05:10:29;;;;;;;23.55;15.60;;;;;;;;;;4939529;28;93129;-75
2022/03/12 05:12:58;;;;;;;21.48;15.25;;;;;;;;;;4941063;28;94682;-75
2022/03/12 05:15:38;;;;;;;30.80;15.73;;;;;;;;;;4938418;28;93618;-74
2022/03/12 05:18:11;;;;;;;18.88;14.40;;;;;;;;;;4938974;28;92474;-75
2022/03/12 05:20:39;;;;;;;22.38;15.23;;;;;;;;;;4939372;28;93597;-75
2022/03/12 05:23:07;;;;;;;25.55;14.38;;;;;;;;;;4939139;28;94198;-74
2022/03/12 05:25:37;;;;;;;26.48;14.88;;;;;;;;;;4939368;28;92187;-74
2022/03/12 05:28:03;;;;;;;23.00;14.73;;;;;;;;;;4939029;28;93542;-75
2022/03/12 05:30:30;;;;;;;22.75;14.50;;;;;;;;;;4939439;28;93417;-75
2022/03/12 05:32:57;;;;;;;20.85;14.18;;;;;;;;;;4941864;28;92382;-75
2022/03/12 05:35:23;;;;;;;17.85;14.90;;;;;;;;;;4939083;28;93728;-75
2022/03/12 05:37:51;;;;;;;18.42;14.68;;;;;;;;;;4937479;28;94776;-75
2022/03/12 05:40:19;;;;;;;20.48;14.70;;;;;;;;;;4938980;28;96114;-75
2022/03/12 05:42:47;;;;;;;18.70;14.45;;;;;;;;;;4938768;28;93792;-75
2022/03/12 05:45:14;;;;;;;22.73;15.30;;;;;;;;;;4938521;28;92355;-75
2022/03/12 05:47:42;;;;;;;18.42;13.98;;;;;;;;;;4938611;28;93382;-74
2022/03/12 05:50:10;;;;;;;20.33;14.23;;;;;;;;;;4937484;28;93125;-74
2022/03/12 05:52:37;;;;;;;20.45;15.02;;;;;;;;;;4938662;28;92363;-75
2022/03/12 05:55:05;;;;;;;19.25;14.40;;;;;;;;;;4942451;28;93425;-75
2022/03/12 05:57:32;;;;;;;19.63;13.88;;;;;;;;;;4938602;28;92321;-75
2022/03/12 06:00:02;;;;;;;20.48;14.95;;;;;;;;;;4938194;28;93401;-75
2022/03/12 06:02:40;;;;;;;16.40;13.45;;;;;;;;;;4934693;28;95735;-75
2022/03/12 06:05:08;;;;;;;18.50;13.57;;;;;;;;;;4938186;28;92314;-75
2022/03/12 06:07:35;;;;;;;17.77;13.75;;;;;;;;;;4938534;28;93680;-75
2022/03/12 06:10:02;;;;;;;18.15;14.48;;;;;;;;;;4938450;28;93650;-75
2022/03/12 06:12:29;;;;;;;18.92;13.93;;;;;;;;;;4938156;28;92206;-74
2022/03/12 06:14:56;;;;;;;15.95;13.50;;;;;;;;;;4938609;28;92257;-75
2022/03/12 06:17:24;;;;;;;20.45;14.05;;;;;;;;;;4941381;28;93398;-75
2022/03/12 06:19:51;;;;;;;17.95;13.45;;;;;;;;;;4938751;28;93773;-74
2022/03/12 06:22:18;;;;;;;18.58;13.95;;;;;;;;;;4938130;28;93060;-75
2022/03/12 06:24:48;;;;;;;20.98;14.07;;;;;;;;;;4938441;28;92166;-74
2022/03/12 06:27:17;;;;;;;18.10;12.98;;;;;;;;;;4936256;28;94804;-75
2022/03/12 06:29:43;;;;;;;16.60;13.23;;;;;;;;;;4938059;28;93605;-74
2022/03/12 06:32:11;;;;;;;17.58;13.68;;;;;;;;;;4938188;28;92360;-74
2022/03/12 06:34:38;;;;;;;17.75;13.70;;;;;;;;;;4937983;28;93536;-74
2022/03/12 06:37:04;;;;;;;18.73;13.43;;;;;;;;;;4938079;28;92950;-74
2022/03/12 06:39:30;;;;;;;17.55;13.20;;;;;;;;;;4940903;28;92340;-75
2022/03/12 06:41:59;;;;;;;16.63;12.77;;;;;;;;;;4938147;28;93742;-74
2022/03/12 06:44:31;;;;;;;17.80;13.98;;;;;;;;;;4938515;28;91598;-75
2022/03/12 06:47:01;;;;;;;18.92;13.02;;;;;;;;;;4936399;28;94802;-76
2022/03/12 06:49:27;;;;;;;14.70;12.80;;;;;;;;;;4937999;28;93563;-74
2022/03/12 06:51:54;;;;;;;14.30;12.57;;;;;;;;;;4935049;28;94726;-75
2022/03/12 06:54:22;;;;;;;17.67;12.88;;;;;;;;;;4937420;28;95713;-75
2022/03/12 06:56:48;;;;;;;21.45;12.80;;;;;;;;;;4937906;28;93436;-74
2022/03/12 06:59:15;;;;;;;15.25;12.30;;;;;;;;;;4937688;28;92160;-74
2022/03/12 07:01:41;;;;;;;16.02;11.90;;;;;;;;;;4940174;28;93502;-75
2022/03/12 07:04:08;;;;;;;17.27;12.65;;;;;;;;;;4937993;28;92360;-74
2022/03/12 07:06:35;;;;;;;13.82;11.52;;;;;;;;;;4937444;28;93565;-74
2022/03/12 07:09:01;;;;;;;17.23;11.63;;;;;;;;;;4938002;28;92433;-74
2022/03/12 07:11:29;;;;;;;21.48;12.27;;;;;;;;;;4937677;28;92207;-74
2022/03/12 07:13:55;;;;;;;14.68;12.02;;;;;;;;;;4937757;28;93822;-74
2022/03/12 07:16:22;;;;;;;15.82;12.20;;;;;;;;;;4936076;28;95511;-74
2022/03/12 07:18:50;;;;;;;13.32;11.25;;;;;;;;;;4937538;28;92351;-75
2022/03/12 07:21:16;;;;;;;12.60;11.25;;;;;;;;;;4937040;28;92933;-74
2022/03/12 07:23:43;;;;;;;13.60;10.80;;;;;;;;;;4940414;28;93978;-74
2022/03/12 07:26:09;;;;;;;15.30;11.35;;;;;;;;;;4937925;28;92926;-72
2022/03/12 07:28:35;;;;;;;12.82;11.50;;;;;;;;;;4937298;28;94069;-71
2022/03/12 07:31:02;;;;;;;16.17;11.77;;;;;;;;;;4937411;28;92250;-73
2022/03/12 07:33:28;;;;;;;17.35;12.68;;;;;;;;;;4937888;28;93644;-72
2022/03/12 07:35:57;;;;;;;13.63;11.98;;;;;;;;;;4936878;28;93604;-74
2022/03/12 07:38:23;;;;;;;16.92;12.40;;;;;;;;;;4937272;28;92328;-73
2022/03/12 07:40:49;;;;;;;16.15;12.00;;;;;;;;;;4935788;28;94566;-74
2022/03/12 07:43:16;;;;;;;14.45;11.82;;;;;;;;;;4938923;28;95087;-74
2022/03/12 07:45:45;;;;;;;13.77;11.68;;;;;;;;;;4936125;28;95279;-72
2022/03/12 07:48:13;;;;;;;13.82;11.15;;;;;;;;;;4936973;28;93950;-74
2022/03/12 07:51:01;;;;;;;18.20;11.90;;;;;;;;;;4937684;28;92343;-75
2022/03/12 07:53:28;;;;;;;16.02;11.48;;;;;;;;;;4936978;28;93458;-75
2022/03/12 07:55:54;;;;;;;15.48;11.02;;;;;;;;;;4935824;28;94629;-74
2022/03/12 07:58:26;;;;;;;13.80;11.70;;;;;;;;;;4936193;28;91698;-74
2022/03/12 08:00:54;;;;;;;14.73;11.55;;;;;;;;;;4936603;28;92352;-75
2022/03/12 08:03:20;;;;;;;16.40;10.52;;;;;;;;;;4936770;28;93670;-74
2022/03/12 08:05:47;;;;;;;14.65;12.05;;;;;;;;;;4938416;28;94687;-76
2022/03/12 08:08:14;;;;;;;13.75;11.40;;;;;;;;;;4936796;28;93357;-76
2022/03/12 08:13:26;;;;;;;13.60;11.70;;;;;;;;;;4938598;28;93854;-74
2022/03/12 08:15:52;;;;;;;14.02;11.00;;;;;;;;;;4940202;28;93766;-73
2022/03/12 08:18:21;;;;;;;14.32;11.32;;;;;;;;;;4940309;28;92380;-75
2022/03/12 08:20:50;;;;;;;13.10;11.68;;;;;;;;;;4940357;28;93203;-74
2022/03/12 08:23:17;;;;;;;15.70;10.80;;;;;;;;;;4940677;28;93009;-76
2022/03/12 08:25:44;;;;;;;12.88;10.80;;;;;;;;;;4940259;28;92199;-74
2022/03/12 08:28:10;;;;;;;18.63;11.13;;;;;;;;;;4941423;28;95735;-74
2022/03/12 08:30:37;;;;;;;17.58;11.07;;;;;;;;;;4938520;28;94880;-74
2022/03/12 08:33:04;;;;;;;12.82;10.88;;;;;;;;;;4938959;28;95666;-74
2022/03/12 08:35:31;;;;;;;17.60;11.02;;;;;;;;;;4939882;28;93833;-74
2022/03/12 08:37:57;;;;;;;12.40;10.63;;;;;;;;;;4939771;28;92381;-74
2022/03/12 08:40:25;;;;;;;13.32;10.45;;;;;;;;;;4939673;28;93320;-74
2022/03/12 08:42:52;;;;;;;12.07;10.77;;;;;;;;;;4939569;28;92720;-74
2022/03/12 08:45:20;;;;;;;13.40;9.90;;;;;;;;;;4938963;28;92409;-73
2022/03/12 08:47:47;;;;;;;11.20;9.57;;;;;;;;;;4940736;28;93730;-74
2022/03/12 08:50:13;;;;;;;13.73;9.60;;;;;;;;;;4943370;28;93612;-73
2022/03/12 08:52:41;;;;;;;14.48;9.27;;;;;;;;;;4940394;28;93476;-74
2022/03/12 08:55:07;;;;;;;13.15;8.93;;;;;;;;;;4938436;28;95465;-76
2022/03/12 08:57:34;;;;;;;11.98;8.43;;;;;;;;;;4940408;28;92409;-73
2022/03/12 09:00:00;;;;;;;11.07;8.43;;;;;;;;;;4940310;28;92965;-74
2022/03/12 09:02:28;;;;;;;11.27;8.18;;;;;;;;;;4939798;28;95053;-73
2022/03/12 09:04:54;;;;;;;11.40;8.00;;;;;;;;;;4940336;28;93161;-73
2022/03/12 09:07:21;;;;;;;11.95;7.82;;;;;;;;;;4940249;28;93740;-74
2022/03/12 09:09:47;;;;;;;8.70;7.80;;;;;;;;;;4939578;28;93620;-74
2022/03/12 09:12:14;;;;;;;9.23;8.18;;;;;;;;;;4942849;28;91895;-74
2022/03/12 09:14:40;;;;;;;10.02;8.35;;;;;;;;;;4939347;28;93696;-75
2022/03/12 09:17:06;;;;;;;10.68;8.52;;;;;;;;;;4939531;28;92360;-74
2022/03/12 09:19:35;;;;;;;10.93;7.88;;;;;;;;;;4934256;28;94766;-74
2022/03/12 09:22:05;;;;;;;12.13;8.73;;;;;;;;;;4936948;28;96530;-73
2022/03/12 09:24:31;;;;;;;10.27;7.82;;;;;;;;;;4938705;28;93343;-75
2022/03/12 09:26:59;;;;;;;9.23;8.30;;;;;;;;;;4943416;28;92949;-75
2022/03/12 09:29:26;;;;;;;14.25;9.10;;;;;;;;;;4938175;28;93662;-74
2022/03/12 09:31:53;;;;;;;10.00;8.18;;;;;;;;;;4941339;28;92381;-74
2022/03/12 09:34:19;;;;;;;9.05;6.57;;;;;;;;;;4942271;28;93396;-75
2022/03/12 09:36:45;;;;;;;12.75;7.20;;;;;;;;;;4939679;28;91550;-75
2022/03/12 09:39:12;;;;;;;9.07;7.22;;;;;;;;;;4939565;28;92706;-75
2022/03/12 09:41:40;;;;;;;7.78;6.18;;;;;;;;;;4940159;28;94158;-75
2022/03/12 09:44:06;;;;;;;7.68;6.47;;;;;;;;;;4938431;28;94736;-75
2022/03/12 09:46:38;;;;;;;11.13;6.65;;;;;;;;;;4939198;28;95578;-78
2022/03/12 09:49:05;;;;;;;8.85;6.53;;;;;;;;;;4938784;28;94418;-77
2022/03/12 09:51:32;;;;;;;16.02;7.00;;;;;;;;;;4938590;28;92360;-77
2022/03/12 09:53:59;;;;;;;7.05;6.45;;;;;;;;;;4942415;28;93649;-76
2022/03/12 09:56:25;;;;;;;9.05;6.70;;;;;;;;;;4939168;28;92313;-75
2022/03/12 09:58:52;;;;;;;10.63;6.43;;;;;;;;;;4939508;28;93465;-77
2022/03/12 10:01:18;;;;;;;8.57;6.18;;;;;;;;;;4939467;28;95392;-78
2022/03/12 10:03:45;;;;;;;8.38;6.20;;;;;;;;;;4939689;28;92112;-78
2022/03/12 10:06:11;;;;;;;9.50;7.30;;;;;;;;;;4939096;28;93338;-73
2022/03/12 10:08:42;;;;;;;10.35;6.68;;;;;;;;;;4937576;28;95567;-74
2022/03/12 10:11:08;;;;;;;7.68;6.68;;;;;;;;;;4938845;28;93877;-74
2022/03/12 10:13:35;;;;;;;10.65;7.20;;;;;;;;;;4939272;28;93278;-75
2022/03/12 10:16:01;;;;;;;9.77;7.32;;;;;;;;;;4942161;28;93557;-74
2022/03/12 10:18:28;;;;;;;9.82;7.25;;;;;;;;;;4939136;28;93513;-76
2022/03/12 10:20:54;;;;;;;11.07;7.78;;;;;;;;;;4938700;28;94255;-75
2022/03/12 10:23:20;;;;;;;14.70;7.45;;;;;;;;;;4939196;28;92476;-75
2022/03/12 10:25:47;;;;;;;8.27;7.47;;;;;;;;;;4938378;28;96182;-74
2022/03/12 10:28:13;;;;;;;9.02;7.10;;;;;;;;;;4938757;28;93698;-76
2022/03/12 10:30:40;;;;;;;9.82;7.57;;;;;;;;;;4938931;28;92284;-75
2022/03/12 10:33:06;;;;;;;8.00;7.18;;;;;;;;;;4937159;28;94813;-75
2022/03/12 10:35:37;;;;;;;8.38;7.57;;;;;;;;;;4937941;28;93991;-75
2022/03/12 10:38:12;;;;;;;8.63;7.78;;;;;;;;;;4941675;28;92292;-74
2022/03/12 10:40:39;;;;;;;8.32;6.82;;;;;;;;;;4937300;28;93259;-75
2022/03/12 10:43:12;;;;;;;11.50;7.60;;;;;;;;;;4938346;28;92228;-76
2022/03/12 10:45:40;;;;;;;8.73;7.50;;;;;;;;;;4937843;28;92942;-75
2022/03/12 10:48:07;;;;;;;10.18;7.18;;;;;;;;;;4941067;28;93279;-74
2022/03/12 10:50:38;;;;;;;7.70;6.90;;;;;;;;;;4939031;28;91478;-74
2022/03/12 10:53:06;;;;;;;8.55;7.20;;;;;;;;;;4938299;28;92488;-74
2022/03/12 10:55:40;;;;;;;11.60;7.55;;;;;;;;;;4937895;28;93684;-74
2022/03/12 10:58:08;;;;;;;8.65;6.68;;;;;;;;;;4936496;28;95731;-73
2022/03/12 11:00:37;;;;;;;9.25;6.78;;;;;;;;;;4937154;28;95656;-74
2022/03/12 11:03:05;;;;;;;12.00;7.07;;;;;;;;;;4937898;28;92427;-77
2022/03/12 11:05:35;;;;;;;11.63;6.53;;;;;;;;;;4937616;28;92739;-73
2022/03/12 11:08:16;;;;;;;7.82;4.95;;;;;;;;;;4937878;28;93375;-74
2022/03/12 11:10:50;;;;;;;6.53;3.63;;;;;;;;;;4935421;28;92307;-75
2022/03/12 11:13:29;;;;;;;9.45;3.20;;;;;;;;;;4934953;28;93340;-78
2022/03/12 11:16:05;;;;;;;11.05;3.72;;;;;;;;;;4938127;28;92876;-74
2022/03/12 11:18:33;;;;;;;7.82;3.40;;;;;;;;;;4937926;28;92433;-74
2022/03/12 11:20:59;;;;;;;5.28;3.20;;;;;;;;;;4938913;28;93365;-74
2022/03/12 11:23:29;;;;;;;6.50;3.55;;;;;;;;;;4938403;28;95455;-74
2022/03/12 11:26:04;;;;;;;7.18;3.70;;;;;;;;;;4937350;28;95220;-74
2022/03/12 11:28:32;;;;;;;6.05;3.22;;;;;;;;;;4937340;28;93613;-75
2022/03/12 11:31:00;;;;;;;11.18;3.58;;;;;;;;;;4939100;28;92479;-76
2022/03/12 11:33:27;;;;;;;9.43;3.65;;;;;;;;;;4937465;28;92998;-74
2022/03/12 11:35:58;;;;;;;5.60;3.63;;;;;;;;;;4933564;28;94841;-76
2022/03/12 11:38:25;;;;;;;7.30;4.13;;;;;;;;;;4937528;28;92337;-76
2022/03/12 11:41:01;;;;;;;8.40;3.80;;;;;;;;;;4943097;28;93416;-76
2022/03/12 11:43:30;;;;;;;4.53;3.50;;;;;;;;;;4937325;28;93423;-77
2022/03/12 11:46:03;;;;;;;8.65;4.13;;;;;;;;;;4940509;28;92186;-77
2022/03/12 11:48:31;;;;;;;5.20;3.17;;;;;;;;;;4937983;28;96367;-74
2022/03/12 11:51:00;;;;;;;8.63;4.03;;;;;;;;;;4943492;28;92769;-75
2022/03/12 11:53:31;;;;;;;6.20;3.50;;;;;;;;;;4941084;28;92940;-75
2022/03/12 11:56:13;;;;;;;4.65;3.22;;;;;;;;;;4940649;28;93574;-75
2022/03/12 11:58:40;;;;;;;5.13;3.22;;;;;;;;;;4940395;28;92434;-75
2022/03/12 12:01:06;;;;;;;63.58;42.40;;;;;;;;;;4943617;28;93889;-75
2022/03/12 12:03:33;;;;;;;6.75;3.92;;;;;;;;;;4939972;28;93254;-77
2022/03/12 12:05:59;;;;;;;5.93;3.45;;;;;;;;;;4944058;28;91679;-74
2022/03/12 12:08:29;;;;;;;5.85;3.53;;;;;;;;;;4936735;28;93385;-78
2022/03/12 12:10:58;;;;;;;6.90;4.00;;;;;;;;;;4944287;28;92302;-77
2022/03/12 12:13:25;;;;;;;5.03;3.45;;;;;;;;;;4939048;28;94689;-78
2022/03/12 12:15:52;;;;;;;8.60;3.90;;;;;;;;;;4940389;28;92897;-76
2022/03/12 12:18:20;;;;;;;10.07;3.88;;;;;;;;;;4940549;28;92588;-77
2022/03/12 12:20:47;;;;;;;5.10;3.55;;;;;;;;;;4944366;28;92945;-77
2022/03/12 12:23:17;;;;;;;7.72;3.28;;;;;;;;;;4939278;28;96089;-75
2022/03/12 12:25:47;;;;;;;6.22;3.42;;;;;;;;;;4939803;28;92466;-77
2022/03/12 12:28:16;;;;;;;6.50;3.97;;;;;;;;;;4941986;28;95825;-75
2022/03/12 12:30:45;;;;;;;8.00;3.95;;;;;;;;;;4941354;28;91699;-74
2022/03/12 12:33:15;;;;;;;6.85;3.60;;;;;;;;;;4940189;28;92343;-74
2022/03/12 12:35:43;;;;;;;3.67;3.37;;;;;;;;;;4939805;28;94553;-74
2022/03/12 12:38:09;;;;;;;4.90;4.10;;;;;;;;;;4938432;28;94737;-70
2022/03/12 12:40:47;;;;;;;4.38;3.85;;;;;;;;;;4944026;28;96643;-74
2022/03/12 12:43:31;;;;;;;5.47;4.15;;;;;;;;;;4937000;28;93382;-73
2022/03/12 12:45:57;;;;;;;6.75;3.80;;;;;;;;;;4939503;28;92940;-75
2022/03/12 12:48:28;;;;;;;11.05;4.45;;;;;;;;;;4939796;28;93690;-74
2022/03/12 12:51:13;;;;;;;7.63;3.80;;;;;;;;;;4941853;28;93724;-74
2022/03/12 12:53:45;;;;;;;4.63;3.50;;;;;;;;;;4935875;28;93206;-73
2022/03/12 12:56:21;;;;;;;7.82;3.38;;;;;;;;;;4936169;28;94047;-73
2022/03/12 12:59:06;;;;;;;6.25;3.80;;;;;;;;;;4936776;28;92653;-74
2022/03/12 13:01:38;;;;;;;6.38;3.65;;;;;;;;;;4939140;28;92936;-73
2022/03/12 13:04:06;;;;;;;6.65;3.88;;;;;;;;;;4937898;28;95931;-74
2022/03/12 13:06:42;;;;;;;8.85;3.80;;;;;;;;;;4939697;28;92941;-75
2022/03/12 13:09:11;;;;;;;4.55;3.40;;;;;;;;;;4939678;28;93846;-75
2022/03/12 13:11:39;;;;;;;5.30;3.88;;;;;;;;;;4941048;28;93664;-75
2022/03/12 13:14:10;;;;;;;5.18;3.70;;;;;;;;;;4941328;28;93699;-74
2022/03/12 13:16:55;;;;;;;5.30;3.80;;;;;;;;;;4939441;28;93208;-75
2022/03/12 13:19:30;;;;;;;8.52;3.90;;;;;;;;;;4935047;28;92322;-74
2022/03/12 13:21:57;;;;;;;5.45;3.53;;;;;;;;;;4935767;28;94569;-74
2022/03/12 13:24:27;;;;;;;5.13;3.45;;;;;;;;;;4939214;28;93806;-75
2022/03/12 13:26:53;;;;;;;5.32;3.85;;;;;;;;;;4939620;28;92317;-75
2022/03/12 13:29:21;;;;;;;8.82;3.45;;;;;;;;;;4938021;28;96344;-74
2022/03/12 13:31:48;;;;;;;5.43;3.15;;;;;;;;;;4941593;28;93222;-75
2022/03/12 13:34:15;;;;;;;3.85;3.30;;;;;;;;;;4939186;28;92553;-75
2022/03/12 13:36:49;;;;;;;5.75;3.00;;;;;;;;;;4942045;28;93372;-75
2022/03/12 13:39:16;;;;;;;4.38;3.30;;;;;;;;;;4939057;28;92397;-74
2022/03/12 13:41:44;;;;;;;6.38;3.08;;;;;;;;;;4941746;28;93719;-75
2022/03/12 13:44:11;;;;;;;2.85;2.60;;;;;;;;;;4937749;28;94514;-75
2022/03/12 13:46:38;;;;;;;7.32;2.83;;;;;;;;;;4939710;28;91630;-74
2022/03/12 13:49:09;;;;;;;4.88;3.08;;;;;;;;;;4937958;28;92489;-74
2022/03/12 13:51:41;;;;;;;7.73;3.23;;;;;;;;;;4939111;28;93729;-75
2022/03/12 13:54:09;;;;;;;5.22;3.10;;;;;;;;;;4937961;28;94612;-75
2022/03/12 13:56:40;;;;;;;9.05;3.30;;;;;;;;;;4942510;28;95620;-75
2022/03/12 13:59:13;;;;;;;6.30;2.75;;;;;;;;;;4939479;28;92291;-74
2022/03/12 14:01:41;;;;;;;7.85;2.97;;;;;;;;;;4939353;28;93625;-75
2022/03/12 14:04:21;;;;;;;3.15;2.85;;;;;;;;;;4939051;28;93508;-75
2022/03/12 14:07:15;;;;;;;7.88;2.95;;;;;;;;;;4938203;28;93552;-75
2022/03/12 14:09:46;;;;;;;9.65;2.88;;;;;;;;;;4938507;28;93306;-75
2022/03/12 14:12:18;;;;;;;3.33;2.50;;;;;;;;;;4939303;28;92870;-75
2022/03/12 14:14:50;;;;;;;4.47;2.72;;;;;;;;;;4939048;28;92404;-75
2022/03/12 14:17:25;;;;;;;7.45;2.55;;;;;;;;;;4938924;28;94560;-74
2022/03/12 14:19:58;;;;;;;4.18;2.38;;;;;;;;;;4940519;28;95874;-75
2022/03/12 14:22:26;;;;;;;5.82;2.70;;;;;;;;;;4939009;28;95791;-75
2022/03/12 14:24:54;;;;;;;5.03;2.67;;;;;;;;;;4938775;28;93218;-75
2022/03/12 14:27:25;;;;;;;3.70;2.58;;;;;;;;;;4939033;28;92274;-74
2022/03/12 14:29:51;;;;;;;5.47;2.80;;;;;;;;;;4939017;28;93336;-74
2022/03/12 14:32:17;;;;;;;5.05;2.75;;;;;;;;;;4937646;28;94570;-75
2022/03/12 14:34:46;;;;;;;5.55;2.83;;;;;;;;;;4938988;28;92292;-74
2022/03/12 14:37:13;;;;;;;6.85;2.58;;;;;;;;;;4938249;28;94169;-74